sensor_id;sensor_type;location;lat;lon;timestamp;temperature;humidity
22787;DHT22;63134;52.020;4.714;2022-10-16T00:01:39;15.30;83.40
22787;DHT22;63134;52.020;4.714;2022-10-16T00:04:25;15.30;83.50
22787;DHT22;63134;52.020;4.714;2022-10-16T00:07:10;15.30;83.30
22787;DHT22;63134;52.020;4.714;2022-10-16T00:10:01;15.30;83.40
22787;DHT22;63134;52.020;4.714;2022-10-16T00:12:47;15.30;83.50
22787;DHT22;63134;52.020;4.714;2022-10-16T00:15:36;15.30;83.30
22787;DHT22;63134;52.020;4.714;2022-10-16T00:18:22;15.30;83.20
22787;DHT22;63134;52.020;4.714;2022-10-16T00:21:10;15.30;83.00
22787;DHT22;63134;52.020;4.714;2022-10-16T00:24:02;15.40;82.60
22787;DHT22;63134;52.020;4.714;2022-10-16T00:26:49;15.40;82.50
22787;DHT22;63134;52.020;4.714;2022-10-16T00:29:35;15.40;82.40
22787;DHT22;63134;52.020;4.714;2022-10-16T00:32:21;15.40;82.50
22787;DHT22;63134;52.020;4.714;2022-10-16T00:35:09;15.40;82.40
22787;DHT22;63134;52.020;4.714;2022-10-16T00:37:54;15.40;82.50
22787;DHT22;63134;52.020;4.714;2022-10-16T00:40:40;15.40;82.70
22787;DHT22;63134;52.020;4.714;2022-10-16T00:46:19;15.30;84.30
22787;DHT22;63134;52.020;4.714;2022-10-16T00:49:09;15.40;85.00
22787;DHT22;63134;52.020;4.714;2022-10-16T00:51:55;15.30;85.20
22787;DHT22;63134;52.020;4.714;2022-10-16T00:54:40;15.30;85.50
22787;DHT22;63134;52.020;4.714;2022-10-16T00:57:26;15.30;85.80
22787;DHT22;63134;52.020;4.714;2022-10-16T01:00:18;15.30;86.10
22787;DHT22;63134;52.020;4.714;2022-10-16T01:03:27;15.30;86.50
22787;DHT22;63134;52.020;4.714;2022-10-16T01:06:27;15.30;86.40
22787;DHT22;63134;52.020;4.714;2022-10-16T01:12:36;15.20;87.50
22787;DHT22;63134;52.020;4.714;2022-10-16T01:21:29;15.10;88.70
22787;DHT22;63134;52.020;4.714;2022-10-16T01:24:37;15.20;89.00
22787;DHT22;63134;52.020;4.714;2022-10-16T01:27:31;15.10;89.40
22787;DHT22;63134;52.020;4.714;2022-10-16T01:30:25;15.00;90.00
22787;DHT22;63134;52.020;4.714;2022-10-16T01:33:24;15.00;90.30
22787;DHT22;63134;52.020;4.714;2022-10-16T01:36:16;15.00;90.50
22787;DHT22;63134;52.020;4.714;2022-10-16T01:39:05;15.00;90.60
22787;DHT22;63134;52.020;4.714;2022-10-16T01:42:12;14.90;90.90
22787;DHT22;63134;52.020;4.714;2022-10-16T01:44:59;14.90;90.90
22787;DHT22;63134;52.020;4.714;2022-10-16T01:47:46;14.80;90.90
22787;DHT22;63134;52.020;4.714;2022-10-16T01:50:36;14.70;91.10
22787;DHT22;63134;52.020;4.714;2022-10-16T01:53:23;14.70;91.40
22787;DHT22;63134;52.020;4.714;2022-10-16T01:56:11;14.70;91.50
22787;DHT22;63134;52.020;4.714;2022-10-16T01:59:03;14.60;91.50
22787;DHT22;63134;52.020;4.714;2022-10-16T02:01:56;14.60;91.60
22787;DHT22;63134;52.020;4.714;2022-10-16T02:04:50;14.60;91.90
22787;DHT22;63134;52.020;4.714;2022-10-16T02:07:37;14.60;92.00
22787;DHT22;63134;52.020;4.714;2022-10-16T02:10:24;14.60;92.00
22787;DHT22;63134;52.020;4.714;2022-10-16T02:13:17;14.60;92.10
22787;DHT22;63134;52.020;4.714;2022-10-16T02:16:04;14.60;92.10
22787;DHT22;63134;52.020;4.714;2022-10-16T02:18:50;14.60;92.20
22787;DHT22;63134;52.020;4.714;2022-10-16T02:21:57;14.60;92.10
22787;DHT22;63134;52.020;4.714;2022-10-16T02:24:53;14.60;92.20
22787;DHT22;63134;52.020;4.714;2022-10-16T02:30:46;14.60;92.30
22787;DHT22;63134;52.020;4.714;2022-10-16T02:33:33;14.70;92.20
22787;DHT22;63134;52.020;4.714;2022-10-16T02:36:21;14.60;92.20
22787;DHT22;63134;52.020;4.714;2022-10-16T02:39:08;14.70;92.20
22787;DHT22;63134;52.020;4.714;2022-10-16T02:41:56;14.70;92.20
22787;DHT22;63134;52.020;4.714;2022-10-16T02:44:42;14.70;92.20
22787;DHT22;63134;52.020;4.714;2022-10-16T02:47:28;14.70;92.20
22787;DHT22;63134;52.020;4.714;2022-10-16T02:50:14;14.70;92.20
22787;DHT22;63134;52.020;4.714;2022-10-16T02:52:59;14.70;92.10
22787;DHT22;63134;52.020;4.714;2022-10-16T02:55:45;14.70;92.50
22787;DHT22;63134;52.020;4.714;2022-10-16T02:58:30;14.60;92.20
22787;DHT22;63134;52.020;4.714;2022-10-16T03:01:16;14.60;92.20
22787;DHT22;63134;52.020;4.714;2022-10-16T03:04:02;14.60;92.10
22787;DHT22;63134;52.020;4.714;2022-10-16T03:06:47;14.50;92.10
22787;DHT22;63134;52.020;4.714;2022-10-16T03:09:33;14.50;92.30
22787;DHT22;63134;52.020;4.714;2022-10-16T03:12:19;14.50;92.50
22787;DHT22;63134;52.020;4.714;2022-10-16T03:15:05;14.50;92.60
22787;DHT22;63134;52.020;4.714;2022-10-16T03:17:52;14.60;92.70
22787;DHT22;63134;52.020;4.714;2022-10-16T03:20:37;14.60;92.70
22787;DHT22;63134;52.020;4.714;2022-10-16T03:23:23;14.70;92.70
22787;DHT22;63134;52.020;4.714;2022-10-16T03:26:08;14.60;92.60
22787;DHT22;63134;52.020;4.714;2022-10-16T03:28:54;14.70;92.70
22787;DHT22;63134;52.020;4.714;2022-10-16T03:31:40;14.70;92.80
22787;DHT22;63134;52.020;4.714;2022-10-16T03:34:25;14.70;92.70
22787;DHT22;63134;52.020;4.714;2022-10-16T03:37:11;14.70;92.70
22787;DHT22;63134;52.020;4.714;2022-10-16T03:39:56;14.70;92.70
22787;DHT22;63134;52.020;4.714;2022-10-16T03:42:42;14.70;92.60
22787;DHT22;63134;52.020;4.714;2022-10-16T03:45:28;14.70;92.60
22787;DHT22;63134;52.020;4.714;2022-10-16T03:48:13;14.70;92.70
22787;DHT22;63134;52.020;4.714;2022-10-16T03:50:59;14.60;92.60
22787;DHT22;63134;52.020;4.714;2022-10-16T03:53:44;14.60;92.70
22787;DHT22;63134;52.020;4.714;2022-10-16T03:56:30;14.60;92.80
22787;DHT22;63134;52.020;4.714;2022-10-16T03:59:18;14.70;92.90
22787;DHT22;63134;52.020;4.714;2022-10-16T04:02:04;14.70;92.90
22787;DHT22;63134;52.020;4.714;2022-10-16T04:04:49;14.70;92.90
22787;DHT22;63134;52.020;4.714;2022-10-16T04:07:35;14.60;92.80
22787;DHT22;63134;52.020;4.714;2022-10-16T04:10:20;14.60;92.80
22787;DHT22;63134;52.020;4.714;2022-10-16T04:13:06;14.50;92.80
22787;DHT22;63134;52.020;4.714;2022-10-16T04:15:54;14.50;92.90
22787;DHT22;63134;52.020;4.714;2022-10-16T04:18:40;14.40;93.30
22787;DHT22;63134;52.020;4.714;2022-10-16T04:21:25;14.40;93.10
22787;DHT22;63134;52.020;4.714;2022-10-16T04:24:11;14.40;93.20
22787;DHT22;63134;52.020;4.714;2022-10-16T04:26:56;14.40;93.20
22787;DHT22;63134;52.020;4.714;2022-10-16T04:29:42;14.40;93.40
22787;DHT22;63134;52.020;4.714;2022-10-16T04:32:27;14.40;93.50
22787;DHT22;63134;52.020;4.714;2022-10-16T04:35:13;14.40;93.60
22787;DHT22;63134;52.020;4.714;2022-10-16T04:37:58;14.50;93.70
22787;DHT22;63134;52.020;4.714;2022-10-16T04:40:44;14.50;93.70
22787;DHT22;63134;52.020;4.714;2022-10-16T04:43:29;14.40;93.60
22787;DHT22;63134;52.020;4.714;2022-10-16T04:46:15;14.40;93.80
22787;DHT22;63134;52.020;4.714;2022-10-16T04:49:03;14.50;93.90
22787;DHT22;63134;52.020;4.714;2022-10-16T04:51:49;14.50;93.90
22787;DHT22;63134;52.020;4.714;2022-10-16T04:54:37;14.60;94.00
22787;DHT22;63134;52.020;4.714;2022-10-16T04:57:24;14.60;94.00
22787;DHT22;63134;52.020;4.714;2022-10-16T05:00:10;14.60;93.90
22787;DHT22;63134;52.020;4.714;2022-10-16T05:02:56;14.60;93.90
22787;DHT22;63134;52.020;4.714;2022-10-16T05:05:43;14.70;93.90
22787;DHT22;63134;52.020;4.714;2022-10-16T05:08:29;14.70;93.90
22787;DHT22;63134;52.020;4.714;2022-10-16T05:11:15;14.70;93.90
22787;DHT22;63134;52.020;4.714;2022-10-16T05:14:04;14.70;93.90
22787;DHT22;63134;52.020;4.714;2022-10-16T05:16:50;14.70;93.80
22787;DHT22;63134;52.020;4.714;2022-10-16T05:19:36;14.70;93.90
22787;DHT22;63134;52.020;4.714;2022-10-16T05:22:22;14.70;93.90
22787;DHT22;63134;52.020;4.714;2022-10-16T05:25:07;14.80;93.90
22787;DHT22;63134;52.020;4.714;2022-10-16T05:27:53;14.80;93.90
22787;DHT22;63134;52.020;4.714;2022-10-16T05:30:41;14.80;93.80
22787;DHT22;63134;52.020;4.714;2022-10-16T05:33:27;14.80;93.70
22787;DHT22;63134;52.020;4.714;2022-10-16T05:36:12;14.80;93.70
22787;DHT22;63134;52.020;4.714;2022-10-16T05:38:58;14.80;93.70
22787;DHT22;63134;52.020;4.714;2022-10-16T05:41:43;14.80;93.80
22787;DHT22;63134;52.020;4.714;2022-10-16T05:44:29;14.80;93.80
22787;DHT22;63134;52.020;4.714;2022-10-16T05:47:15;14.80;93.70
22787;DHT22;63134;52.020;4.714;2022-10-16T05:50:00;14.80;93.80
22787;DHT22;63134;52.020;4.714;2022-10-16T05:52:46;14.90;93.80
22787;DHT22;63134;52.020;4.714;2022-10-16T05:55:33;14.90;94.00
22787;DHT22;63134;52.020;4.714;2022-10-16T05:58:19;14.90;93.90
22787;DHT22;63134;52.020;4.714;2022-10-16T06:01:07;14.90;93.90
22787;DHT22;63134;52.020;4.714;2022-10-16T06:03:57;14.90;93.90
22787;DHT22;63134;52.020;4.714;2022-10-16T06:06:44;14.90;93.90
22787;DHT22;63134;52.020;4.714;2022-10-16T06:09:29;14.90;93.90
22787;DHT22;63134;52.020;4.714;2022-10-16T06:12:16;14.90;94.00
22787;DHT22;63134;52.020;4.714;2022-10-16T06:15:07;14.90;94.30
22787;DHT22;63134;52.020;4.714;2022-10-16T06:17:52;15.00;94.00
22787;DHT22;63134;52.020;4.714;2022-10-16T06:20:37;15.00;93.90
22787;DHT22;63134;52.020;4.714;2022-10-16T06:23:28;15.00;93.90
22787;DHT22;63134;52.020;4.714;2022-10-16T06:26:16;15.00;93.70
22787;DHT22;63134;52.020;4.714;2022-10-16T06:29:02;15.10;93.60
22787;DHT22;63134;52.020;4.714;2022-10-16T06:31:47;15.10;93.50
22787;DHT22;63134;52.020;4.714;2022-10-16T06:34:33;15.10;93.20
22787;DHT22;63134;52.020;4.714;2022-10-16T06:37:20;15.10;92.70
22787;DHT22;63134;52.020;4.714;2022-10-16T06:40:08;15.10;92.30
22787;DHT22;63134;52.020;4.714;2022-10-16T06:42:59;15.10;91.80
22787;DHT22;63134;52.020;4.714;2022-10-16T06:45:56;15.10;91.20
22787;DHT22;63134;52.020;4.714;2022-10-16T06:48:41;15.10;91.10
22787;DHT22;63134;52.020;4.714;2022-10-16T06:51:28;15.10;90.60
22787;DHT22;63134;52.020;4.714;2022-10-16T06:54:15;15.10;90.50
22787;DHT22;63134;52.020;4.714;2022-10-16T06:57:01;15.10;90.40
22787;DHT22;63134;52.020;4.714;2022-10-16T06:59:47;15.10;90.50
22787;DHT22;63134;52.020;4.714;2022-10-16T07:02:37;15.10;90.70
22787;DHT22;63134;52.020;4.714;2022-10-16T07:05:24;15.10;90.70
22787;DHT22;63134;52.020;4.714;2022-10-16T07:08:09;15.10;90.80
22787;DHT22;63134;52.020;4.714;2022-10-16T07:11:08;15.00;91.10
22787;DHT22;63134;52.020;4.714;2022-10-16T07:13:55;15.00;91.30
22787;DHT22;63134;52.020;4.714;2022-10-16T07:16:43;14.90;91.40
22787;DHT22;63134;52.020;4.714;2022-10-16T07:19:29;14.90;91.50
22787;DHT22;63134;52.020;4.714;2022-10-16T07:22:18;14.90;91.70
22787;DHT22;63134;52.020;4.714;2022-10-16T07:25:04;15.00;91.70
22787;DHT22;63134;52.020;4.714;2022-10-16T07:27:50;14.90;91.80
22787;DHT22;63134;52.020;4.714;2022-10-16T07:30:36;14.90;91.90
22787;DHT22;63134;52.020;4.714;2022-10-16T07:33:22;14.90;92.00
22787;DHT22;63134;52.020;4.714;2022-10-16T07:36:08;14.90;92.10
22787;DHT22;63134;52.020;4.714;2022-10-16T07:38:59;14.90;92.30
22787;DHT22;63134;52.020;4.714;2022-10-16T07:41:44;15.00;92.40
22787;DHT22;63134;52.020;4.714;2022-10-16T07:44:30;15.00;92.50
22787;DHT22;63134;52.020;4.714;2022-10-16T07:47:15;15.00;92.60
22787;DHT22;63134;52.020;4.714;2022-10-16T07:50:04;15.00;92.70
22787;DHT22;63134;52.020;4.714;2022-10-16T07:52:50;15.00;92.70
22787;DHT22;63134;52.020;4.714;2022-10-16T07:55:36;15.10;92.80
22787;DHT22;63134;52.020;4.714;2022-10-16T07:58:21;15.10;92.90
22787;DHT22;63134;52.020;4.714;2022-10-16T08:01:11;15.20;92.80
22787;DHT22;63134;52.020;4.714;2022-10-16T08:03:58;15.30;92.80
22787;DHT22;63134;52.020;4.714;2022-10-16T08:06:44;15.30;92.80
22787;DHT22;63134;52.020;4.714;2022-10-16T08:09:29;15.30;92.60
22787;DHT22;63134;52.020;4.714;2022-10-16T08:12:17;15.40;92.50
22787;DHT22;63134;52.020;4.714;2022-10-16T08:15:06;15.40;92.40
22787;DHT22;63134;52.020;4.714;2022-10-16T08:18:01;15.50;92.30
22787;DHT22;63134;52.020;4.714;2022-10-16T08:20:46;15.50;92.30
22787;DHT22;63134;52.020;4.714;2022-10-16T08:23:33;15.60;92.10
22787;DHT22;63134;52.020;4.714;2022-10-16T08:26:27;15.60;91.80
22787;DHT22;63134;52.020;4.714;2022-10-16T08:29:14;15.60;91.70
22787;DHT22;63134;52.020;4.714;2022-10-16T08:31:59;15.70;91.50
22787;DHT22;63134;52.020;4.714;2022-10-16T08:34:44;15.70;91.50
22787;DHT22;63134;52.020;4.714;2022-10-16T08:37:31;15.90;91.60
22787;DHT22;63134;52.020;4.714;2022-10-16T08:40:20;16.00;91.30
22787;DHT22;63134;52.020;4.714;2022-10-16T08:43:43;16.30;91.10
22787;DHT22;63134;52.020;4.714;2022-10-16T08:46:54;16.50;90.60
22787;DHT22;63134;52.020;4.714;2022-10-16T08:49:45;16.50;90.00
22787;DHT22;63134;52.020;4.714;2022-10-16T08:52:39;16.60;89.10
22787;DHT22;63134;52.020;4.714;2022-10-16T08:55:45;16.60;89.10
22787;DHT22;63134;52.020;4.714;2022-10-16T08:58:31;16.60;88.60
22787;DHT22;63134;52.020;4.714;2022-10-16T09:01:19;16.60;88.20
22787;DHT22;63134;52.020;4.714;2022-10-16T09:10:38;16.70;88.10
22787;DHT22;63134;52.020;4.714;2022-10-16T09:13:33;16.80;87.50
22787;DHT22;63134;52.020;4.714;2022-10-16T09:16:46;16.80;87.70
22787;DHT22;63134;52.020;4.714;2022-10-16T09:19:40;16.80;87.20
22787;DHT22;63134;52.020;4.714;2022-10-16T09:22:29;16.90;87.20
22787;DHT22;63134;52.020;4.714;2022-10-16T09:25:21;17.00;86.70
22787;DHT22;63134;52.020;4.714;2022-10-16T09:28:08;17.00;86.60
22787;DHT22;63134;52.020;4.714;2022-10-16T09:30:54;17.00;85.90
22787;DHT22;63134;52.020;4.714;2022-10-16T09:33:41;17.10;86.20
22787;DHT22;63134;52.020;4.714;2022-10-16T09:36:28;17.10;85.30
22787;DHT22;63134;52.020;4.714;2022-10-16T09:39:14;17.10;85.40
22787;DHT22;63134;52.020;4.714;2022-10-16T09:42:04;17.10;85.00
22787;DHT22;63134;52.020;4.714;2022-10-16T09:44:50;17.20;85.00
22787;DHT22;63134;52.020;4.714;2022-10-16T09:47:39;17.30;84.70
22787;DHT22;63134;52.020;4.714;2022-10-16T09:50:28;17.50;84.20
22787;DHT22;63134;52.020;4.714;2022-10-16T09:53:15;17.60;84.20
22787;DHT22;63134;52.020;4.714;2022-10-16T09:56:02;17.90;82.60
22787;DHT22;63134;52.020;4.714;2022-10-16T09:59:00;18.00;81.70
22787;DHT22;63134;52.020;4.714;2022-10-16T10:04:51;18.30;80.00
22787;DHT22;63134;52.020;4.714;2022-10-16T10:07:45;18.40;79.50
22787;DHT22;63134;52.020;4.714;2022-10-16T10:10:34;18.60;78.80
22787;DHT22;63134;52.020;4.714;2022-10-16T10:13:24;18.60;76.80
22787;DHT22;63134;52.020;4.714;2022-10-16T10:16:09;18.60;76.50
22787;DHT22;63134;52.020;4.714;2022-10-16T10:19:01;18.70;76.80
22787;DHT22;63134;52.020;4.714;2022-10-16T10:21:50;18.70;74.90
22787;DHT22;63134;52.020;4.714;2022-10-16T10:24:38;18.50;74.70
22787;DHT22;63134;52.020;4.714;2022-10-16T10:27:36;18.60;75.60
22787;DHT22;63134;52.020;4.714;2022-10-16T10:33:41;18.90;73.90
22787;DHT22;63134;52.020;4.714;2022-10-16T10:36:35;18.70;72.50
22787;DHT22;63134;52.020;4.714;2022-10-16T10:39:27;18.60;71.00
22787;DHT22;63134;52.020;4.714;2022-10-16T10:42:40;18.50;69.40
22787;DHT22;63134;52.020;4.714;2022-10-16T10:48:33;18.30;68.20
22787;DHT22;63134;52.020;4.714;2022-10-16T10:58:04;18.30;67.50
22787;DHT22;63134;52.020;4.714;2022-10-16T11:04:09;18.60;66.10
22787;DHT22;63134;52.020;4.714;2022-10-16T11:07:04;18.70;64.80
22787;DHT22;63134;52.020;4.714;2022-10-16T11:09:53;18.80;64.80
22787;DHT22;63134;52.020;4.714;2022-10-16T11:13:01;18.80;64.30
22787;DHT22;63134;52.020;4.714;2022-10-16T11:15:52;19.20;64.30
22787;DHT22;63134;52.020;4.714;2022-10-16T11:18:54;19.50;64.70
22787;DHT22;63134;52.020;4.714;2022-10-16T11:22:01;19.70;62.80
22787;DHT22;63134;52.020;4.714;2022-10-16T11:24:54;19.70;59.60
22787;DHT22;63134;52.020;4.714;2022-10-16T11:31:16;20.90;59.90
22787;DHT22;63134;52.020;4.714;2022-10-16T11:37:25;22.60;55.10
22787;DHT22;63134;52.020;4.714;2022-10-16T11:40:31;23.10;53.40
22787;DHT22;63134;52.020;4.714;2022-10-16T11:43:35;23.60;50.90
22787;DHT22;63134;52.020;4.714;2022-10-16T11:46:24;23.70;50.20
22787;DHT22;63134;52.020;4.714;2022-10-16T11:49:16;24.40;50.20
22787;DHT22;63134;52.020;4.714;2022-10-16T11:52:23;25.20;49.40
22787;DHT22;63134;52.020;4.714;2022-10-16T11:55:31;25.90;45.80
22787;DHT22;63134;52.020;4.714;2022-10-16T12:01:28;26.50;42.80
22787;DHT22;63134;52.020;4.714;2022-10-16T12:07:27;27.70;41.70
22787;DHT22;63134;52.020;4.714;2022-10-16T12:10:29;28.10;39.80
22787;DHT22;63134;52.020;4.714;2022-10-16T12:13:34;29.00;40.40
22787;DHT22;63134;52.020;4.714;2022-10-16T12:16:22;29.50;36.50
22787;DHT22;63134;52.020;4.714;2022-10-16T12:19:13;29.00;36.90
22787;DHT22;63134;52.020;4.714;2022-10-16T12:22:02;28.00;37.50
22787;DHT22;63134;52.020;4.714;2022-10-16T12:24:51;28.10;38.80
22787;DHT22;63134;52.020;4.714;2022-10-16T12:27:37;28.30;36.90
22787;DHT22;63134;52.020;4.714;2022-10-16T12:30:25;28.20;37.10
22787;DHT22;63134;52.020;4.714;2022-10-16T12:33:34;28.30;36.50
22787;DHT22;63134;52.020;4.714;2022-10-16T12:39:24;28.50;36.10
22787;DHT22;63134;52.020;4.714;2022-10-16T12:45:25;28.60;36.10
22787;DHT22;63134;52.020;4.714;2022-10-16T12:48:20;28.60;36.00
22787;DHT22;63134;52.020;4.714;2022-10-16T12:51:11;28.60;36.10
22787;DHT22;63134;52.020;4.714;2022-10-16T12:54:12;28.80;36.40
22787;DHT22;63134;52.020;4.714;2022-10-16T12:57:27;28.90;35.40
22787;DHT22;63134;52.020;4.714;2022-10-16T13:03:45;27.00;38.20
22787;DHT22;63134;52.020;4.714;2022-10-16T13:06:49;26.30;40.60
22787;DHT22;63134;52.020;4.714;2022-10-16T13:22:59;25.30;42.40
22787;DHT22;63134;52.020;4.714;2022-10-16T13:28:49;25.10;42.70
22787;DHT22;63134;52.020;4.714;2022-10-16T13:31:38;24.90;43.80
22787;DHT22;63134;52.020;4.714;2022-10-16T13:34:24;24.60;44.60
22787;DHT22;63134;52.020;4.714;2022-10-16T13:37:25;24.20;45.90
22787;DHT22;63134;52.020;4.714;2022-10-16T13:40:29;23.90;47.40
22787;DHT22;63134;52.020;4.714;2022-10-16T13:43:16;23.70;48.20
22787;DHT22;63134;52.020;4.714;2022-10-16T13:46:05;23.60;48.40
22787;DHT22;63134;52.020;4.714;2022-10-16T13:49:02;23.50;48.60
22787;DHT22;63134;52.020;4.714;2022-10-16T13:51:56;23.50;48.40
22787;DHT22;63134;52.020;4.714;2022-10-16T13:54:42;23.40;48.60
22787;DHT22;63134;52.020;4.714;2022-10-16T13:57:27;23.40;48.50
22787;DHT22;63134;52.020;4.714;2022-10-16T14:00:31;23.20;48.50
22787;DHT22;63134;52.020;4.714;2022-10-16T14:03:17;23.00;48.70
22787;DHT22;63134;52.020;4.714;2022-10-16T14:06:06;22.80;49.10
22787;DHT22;63134;52.020;4.714;2022-10-16T14:11:53;22.30;49.90
22787;DHT22;63134;52.020;4.714;2022-10-16T14:14:47;22.10;50.40
22787;DHT22;63134;52.020;4.714;2022-10-16T14:17:35;22.00;51.40
22787;DHT22;63134;52.020;4.714;2022-10-16T14:20:26;21.80;50.70
22787;DHT22;63134;52.020;4.714;2022-10-16T14:23:31;21.60;51.40
22787;DHT22;63134;52.020;4.714;2022-10-16T14:26:20;21.50;52.10
22787;DHT22;63134;52.020;4.714;2022-10-16T14:29:15;21.50;52.60
22787;DHT22;63134;52.020;4.714;2022-10-16T14:32:04;21.60;53.00
22787;DHT22;63134;52.020;4.714;2022-10-16T14:34:53;21.60;52.90
22787;DHT22;63134;52.020;4.714;2022-10-16T14:37:42;21.50;52.90
22787;DHT22;63134;52.020;4.714;2022-10-16T14:40:34;21.30;52.90
22787;DHT22;63134;52.020;4.714;2022-10-16T14:43:30;21.30;53.30
22787;DHT22;63134;52.020;4.714;2022-10-16T14:46:22;21.40;53.20
22787;DHT22;63134;52.020;4.714;2022-10-16T14:51:57;21.30;53.10
22787;DHT22;63134;52.020;4.714;2022-10-16T14:54:43;21.50;53.20
22787;DHT22;63134;52.020;4.714;2022-10-16T14:57:31;21.50;52.80
22787;DHT22;63134;52.020;4.714;2022-10-16T15:00:23;21.50;52.80
22787;DHT22;63134;52.020;4.714;2022-10-16T15:03:12;21.50;52.70
22787;DHT22;63134;52.020;4.714;2022-10-16T15:05:57;21.40;52.90
22787;DHT22;63134;52.020;4.714;2022-10-16T15:08:43;21.20;53.30
22787;DHT22;63134;52.020;4.714;2022-10-16T15:11:28;21.00;53.70
22787;DHT22;63134;52.020;4.714;2022-10-16T15:14:14;20.80;54.40
22787;DHT22;63134;52.020;4.714;2022-10-16T15:16:59;20.60;54.80
22787;DHT22;63134;52.020;4.714;2022-10-16T15:19:54;20.40;55.30
22787;DHT22;63134;52.020;4.714;2022-10-16T15:22:40;20.20;56.00
22787;DHT22;63134;52.020;4.714;2022-10-16T15:28:20;19.90;56.90
22787;DHT22;63134;52.020;4.714;2022-10-16T15:31:06;19.70;57.30
22787;DHT22;63134;52.020;4.714;2022-10-16T15:33:53;19.60;57.80
22787;DHT22;63134;52.020;4.714;2022-10-16T15:36:44;19.50;58.20
22787;DHT22;63134;52.020;4.714;2022-10-16T15:39:29;19.50;58.70
22787;DHT22;63134;52.020;4.714;2022-10-16T15:42:15;19.50;59.10
22787;DHT22;63134;52.020;4.714;2022-10-16T15:45:00;19.40;59.30
22787;DHT22;63134;52.020;4.714;2022-10-16T15:47:46;19.40;59.60
22787;DHT22;63134;52.020;4.714;2022-10-16T15:50:32;19.30;60.00
22787;DHT22;63134;52.020;4.714;2022-10-16T15:53:18;19.30;60.30
22787;DHT22;63134;52.020;4.714;2022-10-16T15:56:05;19.20;60.70
22787;DHT22;63134;52.020;4.714;2022-10-16T15:58:52;19.20;61.10
22787;DHT22;63134;52.020;4.714;2022-10-16T16:01:38;19.10;61.50
22787;DHT22;63134;52.020;4.714;2022-10-16T16:04:24;19.10;61.90
22787;DHT22;63134;52.020;4.714;2022-10-16T16:07:27;19.00;63.00
22787;DHT22;63134;52.020;4.714;2022-10-16T16:10:13;19.00;62.60
22787;DHT22;63134;52.020;4.714;2022-10-16T16:12:58;18.90;62.90
22787;DHT22;63134;52.020;4.714;2022-10-16T16:15:44;18.80;64.10
22787;DHT22;63134;52.020;4.714;2022-10-16T16:18:29;18.80;63.90
22787;DHT22;63134;52.020;4.714;2022-10-16T16:21:15;18.70;64.20
22787;DHT22;63134;52.020;4.714;2022-10-16T16:24:01;18.60;64.60
22787;DHT22;63134;52.020;4.714;2022-10-16T16:26:52;18.50;64.90
22787;DHT22;63134;52.020;4.714;2022-10-16T16:29:38;18.40;65.30
22787;DHT22;63134;52.020;4.714;2022-10-16T16:32:23;18.30;65.60
22787;DHT22;63134;52.020;4.714;2022-10-16T16:35:09;18.20;66.00
22787;DHT22;63134;52.020;4.714;2022-10-16T16:37:54;18.10;66.40
22787;DHT22;63134;52.020;4.714;2022-10-16T16:40:40;18.10;66.80
22787;DHT22;63134;52.020;4.714;2022-10-16T16:43:27;18.00;67.10
22787;DHT22;63134;52.020;4.714;2022-10-16T16:46:13;18.00;67.50
22787;DHT22;63134;52.020;4.714;2022-10-16T16:49:00;17.80;67.70
22787;DHT22;63134;52.020;4.714;2022-10-16T16:51:45;17.80;68.10
22787;DHT22;63134;52.020;4.714;2022-10-16T16:54:31;17.70;68.60
22787;DHT22;63134;52.020;4.714;2022-10-16T16:57:19;17.60;69.10
22787;DHT22;63134;52.020;4.714;2022-10-16T17:00:05;17.50;69.30
22787;DHT22;63134;52.020;4.714;2022-10-16T17:02:51;17.50;69.80
22787;DHT22;63134;52.020;4.714;2022-10-16T17:05:37;17.50;70.20
22787;DHT22;63134;52.020;4.714;2022-10-16T17:08:22;17.40;70.50
22787;DHT22;63134;52.020;4.714;2022-10-16T17:11:13;17.30;70.90
22787;DHT22;63134;52.020;4.714;2022-10-16T17:13:59;17.30;71.30
22787;DHT22;63134;52.020;4.714;2022-10-16T17:16:45;17.30;71.70
22787;DHT22;63134;52.020;4.714;2022-10-16T17:19:33;17.20;72.00
22787;DHT22;63134;52.020;4.714;2022-10-16T17:22:23;17.20;72.30
22787;DHT22;63134;52.020;4.714;2022-10-16T17:25:09;17.20;72.60
22787;DHT22;63134;52.020;4.714;2022-10-16T17:27:55;17.10;72.70
22787;DHT22;63134;52.020;4.714;2022-10-16T17:30:41;17.10;73.00
22787;DHT22;63134;52.020;4.714;2022-10-16T17:33:26;17.10;74.00
22787;DHT22;63134;52.020;4.714;2022-10-16T17:36:17;17.00;73.50
22787;DHT22;63134;52.020;4.714;2022-10-16T17:39:05;17.00;73.70
22787;DHT22;63134;52.020;4.714;2022-10-16T17:41:51;17.00;74.10
22787;DHT22;63134;52.020;4.714;2022-10-16T17:44:36;17.00;74.30
22787;DHT22;63134;52.020;4.714;2022-10-16T17:47:22;16.90;74.70
22787;DHT22;63134;52.020;4.714;2022-10-16T17:50:07;16.90;74.90
22787;DHT22;63134;52.020;4.714;2022-10-16T17:53:00;16.90;75.10
22787;DHT22;63134;52.020;4.714;2022-10-16T17:55:45;16.90;75.40
22787;DHT22;63134;52.020;4.714;2022-10-16T17:58:31;16.80;75.60
22787;DHT22;63134;52.020;4.714;2022-10-16T18:01:21;16.80;75.90
22787;DHT22;63134;52.020;4.714;2022-10-16T18:04:09;16.80;76.30
22787;DHT22;63134;52.020;4.714;2022-10-16T18:06:57;16.80;76.60
22787;DHT22;63134;52.020;4.714;2022-10-16T18:09:44;16.80;76.90
22787;DHT22;63134;52.020;4.714;2022-10-16T18:12:50;16.80;77.00
22787;DHT22;63134;52.020;4.714;2022-10-16T18:15:35;16.80;77.20
22787;DHT22;63134;52.020;4.714;2022-10-16T18:18:21;16.80;77.20
22787;DHT22;63134;52.020;4.714;2022-10-16T18:21:15;16.70;77.40
22787;DHT22;63134;52.020;4.714;2022-10-16T18:24:01;16.70;77.50
22787;DHT22;63134;52.020;4.714;2022-10-16T18:26:52;16.70;77.70
22787;DHT22;63134;52.020;4.714;2022-10-16T18:29:40;16.70;78.00
22787;DHT22;63134;52.020;4.714;2022-10-16T18:32:26;16.70;78.00
22787;DHT22;63134;52.020;4.714;2022-10-16T18:35:12;16.70;78.10
22787;DHT22;63134;52.020;4.714;2022-10-16T18:37:57;16.70;78.20
22787;DHT22;63134;52.020;4.714;2022-10-16T18:40:44;16.70;78.50
22787;DHT22;63134;52.020;4.714;2022-10-16T18:43:34;16.70;78.50
22787;DHT22;63134;52.020;4.714;2022-10-16T18:46:22;16.60;78.80
22787;DHT22;63134;52.020;4.714;2022-10-16T18:49:08;16.60;79.10
22787;DHT22;63134;52.020;4.714;2022-10-16T18:51:53;16.60;79.30
22787;DHT22;63134;52.020;4.714;2022-10-16T18:54:41;16.60;79.50
22787;DHT22;63134;52.020;4.714;2022-10-16T18:57:29;16.60;79.60
22787;DHT22;63134;52.020;4.714;2022-10-16T19:00:14;16.50;79.80
22787;DHT22;63134;52.020;4.714;2022-10-16T19:03:00;16.50;80.00
22787;DHT22;63134;52.020;4.714;2022-10-16T19:05:47;16.50;80.20
22787;DHT22;63134;52.020;4.714;2022-10-16T19:08:33;16.50;80.50
22787;DHT22;63134;52.020;4.714;2022-10-16T19:11:23;16.50;80.70
22787;DHT22;63134;52.020;4.714;2022-10-16T19:14:13;16.50;80.80
22787;DHT22;63134;52.020;4.714;2022-10-16T19:16:59;16.40;81.00